Time;durP1;ratioP1;P1;durP2;ratioP2;P2;SDS_P1;SDS_P2;PMS_P1;PMS_P2;Temp;Humidity;BMP_temperature;BMP_pressure;BME280_temperature;BME280_humidity;BME280_pressure;Samples;Min_cycle;Max_cycle;Signal;HPM_P1;HPM_P2
2023/04/19 00:01:37;;;;;;;1999.90;999.90;;;7.80;99.90;;;;;;4891318;29;20545;-77
2023/04/19 00:04:02;;;;;;;1999.90;999.90;;;7.90;99.90;;;;;;4885872;29;20056;-78
2023/04/19 00:06:29;;;;;;;1999.90;386.98;;;7.80;99.90;;;;;;4888719;29;20136;-74
2023/04/19 00:08:56;;;;;;;1999.90;999.90;;;7.40;99.90;;;;;;4883620;29;20045;-74
2023/04/19 00:11:22;;;;;;;1999.90;999.90;;;7.70;99.90;;;;;;4882359;29;20076;-74
2023/04/19 00:13:48;;;;;;;1999.90;999.90;;;7.40;99.90;;;;;;4885186;29;20333;-75
2023/04/19 00:16:15;;;;;;;1999.90;999.90;;;7.80;99.90;;;;;;4885653;29;20083;-74
2023/04/19 00:18:41;;;;;;;1999.90;999.90;;;7.80;99.90;;;;;;4881167;29;20144;-73
2023/04/19 00:21:07;;;;;;;1999.90;999.90;;;7.70;99.90;;;;;;4878787;29;20048;-73
2023/04/19 00:23:33;;;;;;;1999.90;999.90;;;7.80;99.90;;;;;;4880419;29;20454;-74
2023/04/19 00:26:02;;;;;;;1999.90;999.90;;;7.70;99.90;;;;;;4883118;29;20132;-71
2023/04/19 00:28:28;;;;;;;1999.90;999.90;;;7.60;99.90;;;;;;4884582;29;20124;-71
2023/04/19 00:30:54;;;;;;;1999.90;788.55;;;7.60;99.90;;;;;;4881795;29;20104;-72
2023/04/19 00:33:19;;;;;;;1999.90;999.90;;;7.60;99.90;;;;;;4881384;29;20676;-75
2023/04/19 00:35:45;;;;;;;1999.90;999.90;;;7.60;99.90;;;;;;4868878;29;20472;-73
2023/04/19 00:38:11;;;;;;;1999.90;999.90;;;7.50;99.90;;;;;;4880726;29;20053;-72
2023/04/19 00:40:37;;;;;;;1999.90;999.90;;;7.10;99.90;;;;;;4882732;29;20048;-72
2023/04/19 00:43:02;;;;;;;1999.90;999.90;;;7.50;99.90;;;;;;4890601;29;20056;-77
2023/04/19 00:45:28;;;;;;;1999.90;999.90;;;7.50;99.90;;;;;;4883465;29;20755;-73
2023/04/19 00:47:54;;;;;;;1999.90;999.90;;;7.50;99.90;;;;;;4880141;29;20067;-73
2023/04/19 00:50:20;;;;;;;1999.90;999.90;;;7.40;99.90;;;;;;4881495;29;20059;-73
2023/04/19 00:52:47;;;;;;;1999.90;999.90;;;7.30;99.90;;;;;;4881558;29;20049;-73
2023/04/19 00:55:13;;;;;;;1999.90;999.90;;;7.30;99.90;;;;;;4884245;29;20180;-73
2023/04/19 00:57:39;;;;;;;1999.90;999.90;;;7.30;99.90;;;;;;4881147;29;20136;-72
2023/04/19 01:00:07;;;;;;;1999.90;999.90;;;7.30;99.90;;;;;;4882525;29;20083;-73
2023/04/19 01:02:32;;;;;;;;;;;7.30;99.90;;;;;;4881461;29;20140;-72
2023/04/19 01:04:58;;;;;;;1999.90;369.88;;;7.30;99.90;;;;;;4880816;29;20501;-73
2023/04/19 01:07:24;;;;;;;1999.90;999.90;;;7.20;99.90;;;;;;4880576;29;20048;-73
2023/04/19 01:09:50;;;;;;;1999.90;999.90;;;7.30;99.90;;;;;;4880903;29;21262;-77
2023/04/19 01:12:15;;;;;;;1999.90;999.90;;;6.10;99.90;;;;;;4883242;29;20063;-73
2023/04/19 01:14:41;;;;;;;1999.90;999.90;;;7.30;99.90;;;;;;4881474;29;20098;-73
2023/04/19 01:17:07;;;;;;;1999.90;999.90;;;8.60;99.90;;;;;;4879292;29;20052;-73
2023/04/19 01:19:33;;;;;;;1999.90;999.90;;;7.60;99.90;;;;;;4880283;29;20563;-72
2023/04/19 01:22:01;;;;;;;1999.90;999.90;;;7.30;99.90;;;;;;4900005;29;20147;-76
2023/04/19 01:24:27;;;;;;;1999.90;999.90;;;7.30;99.90;;;;;;4883066;29;20166;-74
2023/04/19 01:26:53;;;;;;;1999.90;999.90;;;7.30;99.90;;;;;;4879329;29;20553;-79
2023/04/19 01:29:20;;;;;;;1999.90;999.90;;;7.40;99.90;;;;;;4903823;29;20052;-75
2023/04/19 01:31:50;;;;;;;1886.88;365.58;;;7.30;99.90;;;;;;4881343;29;20487;-73
2023/04/19 01:34:16;;;;;;;1999.90;999.90;;;7.40;99.90;;;;;;4882067;29;20136;-72
2023/04/19 01:36:42;;;;;;;1999.90;999.90;;;7.10;99.90;;;;;;4877930;29;20049;-76
2023/04/19 01:39:07;;;;;;;1999.90;999.90;;;7.30;99.90;;;;;;4882110;29;20427;-74
2023/04/19 01:41:33;;;;;;;1999.90;999.90;;;7.30;99.90;;;;;;4878038;29;20041;-73
2023/04/19 01:43:59;;;;;;;1999.90;999.90;;;7.20;99.90;;;;;;4881635;29;20056;-79
2023/04/19 01:46:25;;;;;;;1999.90;999.90;;;7.20;99.90;;;;;;4878927;29;20549;-73
2023/04/19 01:48:51;;;;;;;1999.90;787.17;;;7.30;99.90;;;;;;4880641;29;20052;-74
2023/04/19 01:51:17;;;;;;;1859.32;778.38;;;7.20;99.90;;;;;;4877707;29;20093;-74
2023/04/19 01:53:42;;;;;;;1999.90;999.90;;;7.20;99.90;;;;;;4881827;29;20120;-75
2023/04/19 01:56:08;;;;;;;1999.90;999.90;;;7.80;99.90;;;;;;4884152;29;20055;-77
2023/04/19 01:58:34;;;;;;;1999.90;999.90;;;8.20;99.90;;;;;;4881280;29;20052;-73
2023/04/19 02:01:00;;;;;;;1999.90;999.90;;;6.20;99.90;;;;;;4883660;29;20113;-78
2023/04/19 02:03:25;;;;;;;1999.90;999.90;;;7.50;99.90;;;;;;4880273;29;20052;-73
2023/04/19 02:05:51;;;;;;;1999.90;999.90;;;7.50;99.90;;;;;;4880039;29;20127;-73
2023/04/19 02:08:17;;;;;;;1999.90;999.90;;;8.30;99.90;;;;;;4886647;29;20132;-80
2023/04/19 02:10:42;;;;;;;1913.53;775.15;;;5.40;99.90;;;;;;4880893;29;20052;-74
2023/04/19 02:13:08;;;;;;;1999.90;999.90;;;8.30;99.90;;;;;;4879567;29;20498;-76
2023/04/19 02:15:36;;;;;;;1999.90;999.90;;;6.50;99.90;;;;;;4874028;29;20056;-76
2023/04/19 02:18:05;;;;;;;1999.90;999.90;;;6.70;99.90;;;;;;4882230;29;20542;-73
2023/04/19 02:20:31;;;;;;;1999.90;999.90;;;7.60;99.90;;;;;;4878263;29;20501;-74
2023/04/19 02:22:57;;;;;;;1999.90;999.90;;;5.60;99.90;;;;;;4877244;29;20063;-75
2023/04/19 02:25:22;;;;;;;1999.90;999.90;;;5.30;99.90;;;;;;4880397;29;20416;-76
2023/04/19 02:27:48;;;;;;;1999.90;999.90;;;7.20;99.90;;;;;;4881441;29;20044;-73
2023/04/19 02:30:14;;;;;;;1999.90;999.90;;;7.20;99.90;;;;;;4879286;29;20049;-73
2023/04/19 02:32:40;;;;;;;1999.90;999.90;;;6.70;99.90;;;;;;4880708;29;20045;-77
2023/04/19 02:35:06;;;;;;;1999.90;999.90;;;6.80;99.90;;;;;;4844688;29;1104758;-73
2023/04/19 02:37:31;;;;;;;1999.90;999.90;;;7.60;99.90;;;;;;4879495;29;20084;-73
2023/04/19 02:39:57;;;;;;;1999.90;999.90;;;7.20;99.90;;;;;;4884984;29;20458;-73
2023/04/19 02:42:23;;;;;;;1999.90;999.90;;;6.80;99.90;;;;;;4881647;29;20502;-75
2023/04/19 02:44:49;;;;;;;1999.90;999.90;;;;;;;;;;4878459;29;20067;-78
2023/04/19 02:47:14;;;;;;;1999.90;999.90;;;6.70;99.90;;;;;;4874275;29;20112;-74
2023/04/19 02:49:41;;;;;;;1999.90;999.90;;;6.70;99.90;;;;;;4882650;29;20549;-73
2023/04/19 02:52:07;;;;;;;1999.90;999.90;;;8.00;99.90;;;;;;4901852;29;20052;-74
2023/04/19 02:54:33;;;;;;;1999.90;999.90;;;7.60;99.90;;;;;;4882907;29;20135;-72
2023/04/19 02:56:59;;;;;;;1999.90;999.90;;;7.00;99.90;;;;;;4879983;29;20132;-78
2023/04/19 02:59:26;;;;;;;1999.90;999.90;;;;;;;;;;4883514;29;20135;-72
2023/04/19 03:01:51;;;;;;;1999.90;570.25;;;6.60;99.90;;;;;;4887452;29;20045;-73
2023/04/19 03:04:17;;;;;;;1974.72;559.55;;;6.60;99.90;;;;;;4885531;29;20048;-72
2023/04/19 03:06:43;;;;;;;1999.90;999.90;;;6.00;99.90;;;;;;4882432;29;20085;-75
2023/04/19 03:09:09;;;;;;;1999.90;999.90;;;7.10;99.90;;;;;;4884221;29;20060;-80
2023/04/19 03:11:35;;;;;;;1999.90;999.90;;;6.30;99.90;;;;;;4884535;29;20056;-73
2023/04/19 03:14:01;;;;;;;1999.90;999.90;;;6.80;99.90;;;;;;4881551;29;20051;-75
2023/04/19 03:16:29;;;;;;;1999.90;999.90;;;6.50;99.90;;;;;;4885451;29;20045;-73
2023/04/19 03:18:55;;;;;;;1900.65;572.38;;;6.70;99.90;;;;;;4890264;29;20055;-73
2023/04/19 03:21:21;;;;;;;1999.90;999.90;;;6.40;99.90;;;;;;4884258;29;20048;-76
2023/04/19 03:23:46;;;;;;;1999.90;999.90;;;6.60;99.90;;;;;;4886316;29;20052;-73
2023/04/19 03:26:12;;;;;;;1999.90;999.90;;;6.70;99.90;;;;;;4884478;29;20049;-73
2023/04/19 03:28:38;;;;;;;1999.90;999.90;;;7.50;99.90;;;;;;4884091;29;20131;-73
2023/04/19 03:31:03;;;;;;;1999.90;999.90;;;6.30;99.90;;;;;;4883622;29;20104;-73
2023/04/19 03:33:29;;;;;;;1999.90;999.90;;;6.50;99.90;;;;;;4880560;29;20052;-78
2023/04/19 03:35:55;;;;;;;1999.90;999.90;;;6.70;99.90;;;;;;4881537;29;21069;-73
2023/04/19 03:38:20;;;;;;;1999.90;999.90;;;6.00;99.90;;;;;;4885222;29;20135;-79
2023/04/19 03:40:46;;;;;;;1999.90;999.90;;;7.40;99.90;;;;;;4884892;29;20053;-77
2023/04/19 03:43:12;;;;;;;1999.90;999.90;;;7.30;99.90;;;;;;4886075;29;20052;-72
2023/04/19 03:45:38;;;;;;;1999.90;999.90;;;6.20;99.90;;;;;;4882047;29;20056;-76
2023/04/19 03:48:04;;;;;;;1999.90;999.90;;;6.00;99.90;;;;;;4883066;29;20056;-73
2023/04/19 03:50:29;;;;;;;1999.90;999.90;;;6.00;99.90;;;;;;4899896;29;20387;-79
2023/04/19 03:52:55;;;;;;;1999.90;999.90;;;6.00;99.90;;;;;;4884887;29;20048;-73
2023/04/19 03:55:21;;;;;;;1999.90;999.90;;;6.10;99.90;;;;;;4873212;29;20131;-73
2023/04/19 03:57:47;;;;;;;1999.90;999.90;;;;;;;;;;4880096;29;20131;-75
2023/04/19 04:00:13;;;;;;;1999.90;999.90;;;6.50;99.90;;;;;;4883026;29;20048;-74
2023/04/19 04:02:39;;;;;;;1999.90;999.90;;;5.00;99.90;;;;;;4883540;29;20127;-75
2023/04/19 04:05:05;;;;;;;1999.90;999.90;;;5.90;99.90;;;;;;4887576;29;20132;-73
2023/04/19 04:07:31;;;;;;;1999.90;999.90;;;;;;;;;;4890680;29;20049;-78
2023/04/19 04:09:57;;;;;;;1999.90;999.90;;;5.90;99.90;;;;;;4884481;29;20045;-73
2023/04/19 04:12:23;;;;;;;1999.90;999.90;;;6.50;99.90;;;;;;4886314;29;20112;-73
2023/04/19 04:14:49;;;;;;;1999.90;999.90;;;5.80;99.90;;;;;;4897045;29;20052;-73
2023/04/19 04:17:15;;;;;;;1999.90;999.90;;;6.40;99.90;;;;;;4896365;29;20092;-73
2023/04/19 04:19:40;;;;;;;1999.90;999.90;;;4.70;99.90;;;;;;4882283;29;20545;-74
2023/04/19 04:22:06;;;;;;;1999.90;999.90;;;8.00;99.90;;;;;;4895078;29;20569;-73
2023/04/19 04:24:40;;;;;;;1999.90;999.90;;;5.80;99.90;;;;;;4888081;29;20045;-74
2023/04/19 04:27:08;;;;;;;1999.90;999.90;;;6.30;99.90;;;;;;4895590;29;20044;-74
2023/04/19 04:29:35;;;;;;;1999.90;999.90;;;6.20;99.90;;;;;;4899084;29;20047;-73
2023/04/19 04:32:07;;;;;;;1999.90;999.90;;;6.10;99.90;;;;;;4895331;29;20053;-73
2023/04/19 04:34:34;;;;;;;1999.90;999.90;;;5.50;99.90;;;;;;4884434;29;20056;-74
2023/04/19 04:37:01;;;;;;;1999.90;999.90;;;5.80;99.90;;;;;;4909044;29;20544;-75
2023/04/19 04:39:27;;;;;;;1999.90;999.90;;;5.80;99.90;;;;;;4894439;29;20044;-74
2023/04/19 04:41:53;;;;;;;1999.90;999.90;;;5.70;99.90;;;;;;4897477;29;20088;-73
2023/04/19 04:44:19;;;;;;;1999.90;999.90;;;6.30;99.90;;;;;;4863858;29;20088;-74
2023/04/19 04:46:45;;;;;;;1999.90;999.90;;;5.70;99.90;;;;;;4879815;29;20045;-73
2023/04/19 04:49:11;;;;;;;1999.90;999.90;;;8.30;99.90;;;;;;4895744;29;20049;-77
2023/04/19 04:51:36;;;;;;;1999.90;999.90;;;6.40;99.90;;;;;;4895179;29;20116;-73
2023/04/19 04:54:04;;;;;;;1999.90;999.90;;;5.90;99.90;;;;;;4895405;29;20086;-74
2023/04/19 04:56:29;;;;;;;1999.90;798.25;;;5.70;99.90;;;;;;4890821;29;20450;-75
2023/04/19 04:58:56;;;;;;;1999.90;797.55;;;6.20;99.90;;;;;;4900345;29;20056;-76
2023/04/19 05:01:22;;;;;;;1999.90;999.90;;;5.80;99.90;;;;;;4895273;29;20041;-74
2023/04/19 05:03:49;;;;;;;1999.90;999.90;;;5.70;99.90;;;;;;4888394;29;20053;-74
2023/04/19 05:06:14;;;;;;;1999.90;999.90;;;6.00;99.90;;;;;;4893760;29;20044;-74
2023/04/19 05:08:40;;;;;;;1999.90;999.90;;;5.50;99.90;;;;;;4894531;29;20339;-76
2023/04/19 05:11:06;;;;;;;1999.90;999.90;;;5.70;99.90;;;;;;4891654;29;20045;-74
2023/04/19 05:13:31;;;;;;;1999.90;999.90;;;7.40;99.90;;;;;;4897299;29;20397;-74
2023/04/19 05:15:57;;;;;;;1999.90;999.90;;;5.50;99.90;;;;;;4895922;29;20052;-74
2023/04/19 05:18:23;;;;;;;1999.90;999.90;;;6.70;99.90;;;;;;4898190;29;20048;-74
2023/04/19 05:20:49;;;;;;;1999.90;999.90;;;5.70;99.90;;;;;;4895783;29;20045;-74
2023/04/19 05:23:14;;;;;;;1999.90;999.90;;;5.70;99.90;;;;;;4890008;29;20048;-74
2023/04/19 05:25:40;;;;;;;1999.90;999.90;;;6.00;99.90;;;;;;4893067;29;20080;-74
2023/04/19 05:28:06;;;;;;;1999.90;999.90;;;5.60;99.90;;;;;;4885279;29;20088;-74
2023/04/19 05:30:31;;;;;;;1999.90;999.90;;;6.20;99.90;;;;;;4896321;29;20048;-74
2023/04/19 05:32:57;;;;;;;1999.90;999.90;;;5.70;99.90;;;;;;4895183;29;20104;-74
2023/04/19 05:35:23;;;;;;;1999.90;999.90;;;7.40;99.90;;;;;;4893279;29;20119;-74
2023/04/19 05:37:49;;;;;;;1999.90;999.90;;;5.60;99.90;;;;;;4894914;29;20049;-75
2023/04/19 05:40:15;;;;;;;1999.90;999.90;;;6.70;99.90;;;;;;4879980;29;20131;-73
2023/04/19 05:42:40;;;;;;;1999.90;999.90;;;5.80;99.90;;;;;;4885463;29;20081;-76
2023/04/19 05:45:07;;;;;;;1999.90;999.90;;;5.90;99.90;;;;;;4879335;29;20045;-73
2023/04/19 05:47:32;;;;;;;1999.90;804.58;;;5.90;99.90;;;;;;4893470;29;20100;-73
2023/04/19 05:49:58;;;;;;;1999.90;999.90;;;6.20;99.90;;;;;;4878889;29;20133;-73
2023/04/19 05:52:24;;;;;;;1999.90;999.90;;;7.00;99.90;;;;;;4889899;29;20090;-74
2023/04/19 05:54:49;;;;;;;1999.90;999.90;;;6.70;99.90;;;;;;4887725;29;20053;-73
2023/04/19 05:57:15;;;;;;;1999.90;999.90;;;6.00;99.90;;;;;;4895358;29;20052;-73
2023/04/19 05:59:41;;;;;;;1999.90;999.90;;;7.30;99.90;;;;;;4884337;29;20036;-79
2023/04/19 06:02:08;;;;;;;1999.90;999.90;;;6.00;99.90;;;;;;4877523;29;20389;-73
2023/04/19 06:04:33;;;;;;;1999.90;660.50;;;6.50;99.90;;;;;;4887335;29;20048;-73
2023/04/19 06:06:59;;;;;;;1999.90;999.90;;;6.00;99.90;;;;;;4893833;29;20048;-73
2023/04/19 06:09:25;;;;;;;1999.90;999.90;;;6.20;99.90;;;;;;4897801;29;20182;-73
2023/04/19 06:11:53;;;;;;;1999.90;999.90;;;7.20;99.90;;;;;;4895989;29;20127;-74
2023/04/19 06:14:19;;;;;;;1999.90;999.90;;;7.20;99.90;;;;;;4886069;29;20056;-73
2023/04/19 06:16:45;;;;;;;1999.90;999.90;;;5.90;99.90;;;;;;4890835;29;20048;-73
2023/04/19 06:19:11;;;;;;;1999.90;999.90;;;7.60;97.50;;;;;;4896279;29;20044;-72
2023/04/19 06:21:37;;;;;;;1999.90;999.90;;;6.50;99.90;;;;;;4894888;29;20047;-73
2023/04/19 06:24:03;;;;;;;1999.90;999.90;;;;;;;;;;4896042;29;20115;-73
2023/04/19 06:26:29;;;;;;;1999.90;999.90;;;6.60;99.90;;;;;;4893644;29;20104;-75
2023/04/19 06:28:55;;;;;;;1999.90;999.90;;;8.80;99.90;;;;;;4885419;29;20041;-73
2023/04/19 06:31:20;;;;;;;1999.90;999.90;;;6.70;98.00;;;;;;4893397;29;20040;-74
2023/04/19 06:33:46;;;;;;;1999.90;999.90;;;6.70;99.40;;;;;;4882770;29;20048;-73
2023/04/19 06:36:12;;;;;;;1999.90;999.90;;;6.80;84.60;;;;;;4877283;29;20519;-74
2023/04/19 06:38:37;;;;;;;1999.90;999.90;;;6.90;90.10;;;;;;4878625;29;20053;-73
2023/04/19 06:41:04;;;;;;;1999.90;999.90;;;7.00;94.50;;;;;;4885083;29;20459;-73
2023/04/19 06:43:29;;;;;;;1999.90;999.90;;;7.00;81.30;;;;;;4897097;29;20045;-72
2023/04/19 06:45:59;;;;;;;1999.90;999.90;;;8.00;94.00;;;;;;4896723;29;20551;-72
2023/04/19 06:48:25;;;;;;;1999.90;999.90;;;7.10;68.30;;;;;;4895183;29;20041;-73
2023/04/19 06:50:51;;;;;;;1999.90;999.90;;;7.20;83.90;;;;;;4895551;29;20393;-73
2023/04/19 06:53:16;;;;;;;1999.90;999.90;;;7.30;92.40;;;;;;4875341;29;20052;-74
2023/04/19 06:55:42;;;;;;;1999.90;999.90;;;7.40;81.30;;;;;;4895927;29;20048;-73
2023/04/19 06:58:09;;;;;;;1999.90;999.90;;;7.50;73.50;;;;;;4891111;29;20045;-73
2023/04/19 07:00:35;;;;;;;1999.90;625.08;;;7.60;51.00;;;;;;4878224;29;20053;-74
2023/04/19 07:03:01;;;;;;;1999.90;999.90;;;7.70;59.20;;;;;;4890665;29;20124;-75
2023/04/19 07:05:28;;;;;;;1999.90;999.90;;;8.40;67.30;;;;;;4896214;29;20472;-76
2023/04/19 07:07:54;;;;;;;1999.90;999.90;;;7.70;55.50;;;;;;4893482;29;20051;-73
2023/04/19 07:10:19;;;;;;;1999.90;616.67;;;7.80;54.10;;;;;;4896006;29;20482;-74
2023/04/19 07:12:45;;;;;;;1999.90;999.90;;;8.60;58.70;;;;;;4879616;29;20447;-74
2023/04/19 07:15:11;;;;;;;1999.90;999.90;;;8.00;58.20;;;;;;4895722;29;20045;-73
2023/04/19 07:17:37;;;;;;;1999.90;999.90;;;8.00;56.80;;;;;;4890618;29;20053;-74
2023/04/19 07:20:05;;;;;;;1999.90;999.90;;;10.10;66.50;;;;;;4883610;29;20063;-74
2023/04/19 07:22:31;;;;;;;1999.90;999.90;;;8.10;53.50;;;;;;4877573;29;20065;-73
2023/04/19 07:24:57;;;;;;;1999.90;687.67;;;8.20;61.20;;;;;;4888926;29;20119;-73
2023/04/19 07:27:23;;;;;;;1999.90;999.90;;;8.30;51.90;;;;;;4878746;29;20048;-74
2023/04/19 07:29:50;;;;;;;1999.90;999.90;;;;;;;;;;4887099;29;20041;-78
2023/04/19 07:32:15;;;;;;;1999.90;999.90;;;11.20;10.80;;;;;;4878048;29;20045;-74
2023/04/19 07:34:42;;;;;;;1999.90;534.97;;;13.10;1.00;;;;;;4878679;29;20112;-74
2023/04/19 07:37:08;;;;;;;1999.90;999.90;;;14.60;1.00;;;;;;4880538;29;20124;-74
2023/04/19 07:39:34;;;;;;;1999.90;999.90;;;16.00;1.00;;;;;;4897095;29;20084;-77
2023/04/19 07:42:00;;;;;;;1999.90;999.90;;;16.70;1.00;;;;;;4864771;29;20080;-74
2023/04/19 07:44:26;;;;;;;1999.90;999.90;;;17.40;1.00;;;;;;4895831;29;20044;-74
2023/04/19 07:46:52;;;;;;;1999.90;999.90;;;18.10;1.00;;;;;;4878770;29;20044;-74
2023/04/19 07:49:18;;;;;;;1999.90;999.90;;;18.60;1.00;;;;;;4895819;29;20041;-74
2023/04/19 07:51:44;;;;;;;1999.90;999.90;;;19.20;1.00;;;;;;4887127;29;20048;-75
2023/04/19 07:54:10;;;;;;;1999.90;999.90;;;19.90;1.00;;;;;;4882918;29;20049;-75
2023/04/19 07:56:35;;;;;;;1999.90;999.90;;;20.30;1.00;;;;;;4891259;29;20184;-74
2023/04/19 07:59:01;;;;;;;1999.90;999.90;;;20.90;1.00;;;;;;4880999;29;20128;-75
2023/04/19 08:01:28;;;;;;;1999.90;999.90;;;21.00;1.00;;;;;;4897839;29;20033;-75
2023/04/19 08:03:54;;;;;;;1999.90;999.90;;;21.20;1.00;;;;;;4879371;29;20140;-74
2023/04/19 08:06:20;;;;;;;1999.90;999.90;;;20.70;1.00;;;;;;4881561;29;20165;-77
2023/04/19 08:08:47;;;;;;;1999.90;999.90;;;21.00;1.00;;;;;;4899002;29;20395;-75
2023/04/19 08:11:12;;;;;;;1999.90;999.90;;;20.50;1.00;;;;;;4897668;29;20041;-75
2023/04/19 08:13:38;;;;;;;1999.90;999.90;;;20.70;1.00;;;;;;4898482;29;20051;-75
2023/04/19 08:16:04;;;;;;;1999.90;999.90;;;19.90;1.00;;;;;;4898266;29;20048;-75
2023/04/19 08:18:30;;;;;;;1999.90;999.90;;;20.10;1.00;;;;;;4899094;29;20044;-75
2023/04/19 08:20:57;;;;;;;1999.90;999.90;;;21.10;1.00;;;;;;4898220;29;20044;-75
2023/04/19 08:23:22;;;;;;;1999.90;999.90;;;21.30;1.00;;;;;;4896833;29;20049;-75
2023/04/19 08:25:48;;;;;;;1999.90;999.90;;;22.10;1.00;;;;;;4888521;29;20113;-75
2023/04/19 08:28:14;;;;;;;1999.90;999.90;;;22.10;1.00;;;;;;4882943;29;20045;-75
2023/04/19 08:30:40;;;;;;;1999.90;999.90;;;21.60;1.00;;;;;;4880339;29;20534;-76
2023/04/19 08:33:05;;;;;;;1999.90;999.90;;;22.10;1.00;;;;;;4880064;29;20084;-75
2023/04/19 08:35:34;;;;;;;1999.90;999.90;;;22.50;1.00;;;;;;4890357;29;20159;-75
2023/04/19 08:37:59;;;;;;;1999.90;999.90;;;22.60;1.00;;;;;;4896963;29;20052;-78
2023/04/19 08:40:25;;;;;;;1999.90;999.90;;;22.90;1.00;;;;;;4899318;29;20051;-74
2023/04/19 08:42:51;;;;;;;1999.90;999.90;;;23.00;1.00;;;;;;4889709;29;20041;-75
2023/04/19 08:45:20;;;;;;;1999.90;999.90;;;23.40;1.00;;;;;;4895632;29;20474;-75
2023/04/19 08:47:46;;;;;;;1999.90;999.90;;;23.30;1.00;;;;;;4886660;29;20107;-75
2023/04/19 08:50:12;;;;;;;1999.90;999.90;;;22.30;1.00;;;;;;4880372;29;20117;-75
2023/04/19 08:52:39;;;;;;;1999.90;999.90;;;22.60;1.00;;;;;;4879308;29;20469;-80
2023/04/19 08:55:06;;;;;;;1999.90;999.90;;;22.80;1.00;;;;;;4880710;29;20060;-75
2023/04/19 08:57:33;;;;;;;1999.90;999.90;;;22.90;1.00;;;;;;4893177;29;20128;-75
2023/04/19 09:00:10;;;;;;;1999.90;999.90;;;23.40;1.00;;;;;;4882646;29;20048;-75
2023/04/19 09:02:57;;;;;;;1999.90;999.90;;;23.80;1.00;;;;;;4891178;29;20040;-75
2023/04/19 09:05:22;;;;;;;1999.90;999.90;;;24.00;1.00;;;;;;4897874;29;20052;-75
2023/04/19 09:07:48;;;;;;;1999.90;999.90;;;24.30;1.00;;;;;;4892717;29;20084;-75
2023/04/19 09:10:17;;;;;;;1999.90;999.90;;;24.50;1.00;;;;;;4883472;29;20116;-75
2023/04/19 09:12:57;;;;;;;1999.90;999.90;;;24.80;1.00;;;;;;4897100;29;20076;-76
2023/04/19 09:15:38;;;;;;;1999.90;999.90;;;24.80;1.00;;;;;;4896646;29;20084;-76
2023/04/19 09:18:06;;;;;;;1999.90;999.90;;;24.80;1.00;;;;;;4895214;29;20083;-75
2023/04/19 09:20:40;;;;;;;1999.90;999.90;;;24.20;1.00;;;;;;4878687;29;20136;-75
2023/04/19 09:23:08;;;;;;;1999.90;999.90;;;23.50;1.00;;;;;;4878487;29;20045;-75
2023/04/19 09:25:35;;;;;;;1999.90;999.90;;;23.80;1.00;;;;;;4893699;29;20052;-75
2023/04/19 09:28:11;;;;;;;1999.90;999.90;;;23.30;1.00;;;;;;4879226;29;20485;-75
2023/04/19 09:30:39;;;;;;;1999.90;999.90;;;23.70;1.00;;;;;;4896155;29;20048;-75
2023/04/19 09:33:05;;;;;;;1999.90;999.90;;;24.20;1.00;;;;;;4896621;29;20044;-79
2023/04/19 09:35:48;;;;;;;1999.90;999.90;;;24.30;1.00;;;;;;4894829;29;20052;-75
2023/04/19 09:38:15;;;;;;;1999.90;999.90;;;24.40;1.00;;;;;;4896677;29;20401;-76
2023/04/19 09:40:41;;;;;;;1999.90;999.90;;;24.60;1.00;;;;;;4885056;29;20060;-76
2023/04/19 09:43:07;;;;;;;1999.90;999.90;;;24.90;1.00;;;;;;4882838;29;20087;-76
2023/04/19 09:45:59;;;;;;;1999.90;999.90;;;24.50;1.00;;;;;;4896996;29;20052;-75
2023/04/19 09:48:25;;;;;;;1999.90;999.90;;;24.30;1.00;;;;;;4875425;29;20052;-75
2023/04/19 09:50:59;;;;;;;1999.90;999.90;;;24.50;1.00;;;;;;4889912;29;20048;-75
2023/04/19 09:53:27;;;;;;;1999.90;999.90;;;24.40;1.00;;;;;;4893245;29;20045;-75
2023/04/19 09:55:54;;;;;;;1999.90;999.90;;;24.90;1.00;;;;;;4884336;29;20052;-75
2023/04/19 09:58:20;;;;;;;1999.90;999.90;;;25.30;1.00;;;;;;4887441;29;20041;-75
2023/04/19 10:00:48;;;;;;;1999.90;999.90;;;25.20;1.00;;;;;;4886408;29;20044;-75
2023/04/19 10:03:15;;;;;;;1999.90;999.90;;;24.20;1.00;;;;;;4877467;29;20056;-75
2023/04/19 10:05:41;;;;;;;1999.90;999.90;;;24.40;1.00;;;;;;4895838;29;20056;-75
2023/04/19 10:08:09;;;;;;;1999.90;999.90;;;24.50;1.00;;;;;;4893452;29;20048;-75
2023/04/19 10:10:35;;;;;;;;;;;24.20;1.00;;;;;;4895958;29;20385;-75
2023/04/19 10:13:07;;;;;;;1999.90;999.90;;;24.30;1.00;;;;;;4903536;29;19971;-77
2023/04/19 10:15:37;;;;;;;1999.90;999.90;;;24.80;1.00;;;;;;4891633;29;20108;-76
2023/04/19 10:18:04;;;;;;;1999.90;999.90;;;25.20;1.00;;;;;;4889564;29;20501;-76
2023/04/19 10:20:53;;;;;;;1999.90;999.90;;;25.20;1.00;;;;;;4886693;29;20492;-75
2023/04/19 10:23:20;;;;;;;1999.90;999.90;;;25.50;1.00;;;;;;4882370;29;20397;-75
2023/04/19 10:25:47;;;;;;;1999.90;999.90;;;25.50;1.00;;;;;;4879360;29;20052;-76
2023/04/19 10:28:14;;;;;;;1999.90;999.90;;;25.30;1.00;;;;;;4894212;29;20056;-75
2023/04/19 10:30:54;;;;;;;1999.90;999.90;;;25.40;1.00;;;;;;4876705;29;20051;-75
2023/04/19 10:33:28;;;;;;;1999.90;999.90;;;25.20;1.00;;;;;;4878138;29;20037;-76
2023/04/19 10:36:00;;;;;;;1999.90;999.90;;;25.30;1.00;;;;;;4893453;29;20521;-75
2023/04/19 10:38:48;;;;;;;1999.90;999.90;;;25.60;1.00;;;;;;4893732;29;20074;-75
2023/04/19 10:41:15;;;;;;;1999.90;999.90;;;26.20;1.00;;;;;;4896601;29;20048;-80
2023/04/19 10:43:44;;;;;;;1999.90;999.90;;;26.50;1.00;;;;;;4885914;29;20052;-75
2023/04/19 10:46:16;;;;;;;1999.90;999.90;;;26.30;1.00;;;;;;4878837;29;20079;-75
2023/04/19 10:48:57;;;;;;;1999.90;999.90;;;26.20;1.00;;;;;;4891326;29;20056;-78
2023/04/19 10:51:28;;;;;;;1999.90;999.90;;;26.30;1.00;;;;;;4889018;29;20048;-76
2023/04/19 10:54:00;;;;;;;1999.90;999.90;;;26.30;1.00;;;;;;4883862;29;20068;-75
2023/04/19 10:56:32;;;;;;;1999.90;999.90;;;26.50;1.00;;;;;;4877337;29;20060;-76
2023/04/19 10:59:07;;;;;;;1999.90;999.90;;;26.80;1.00;;;;;;4886349;29;20041;-75
2023/04/19 11:01:41;;;;;;;1999.90;999.90;;;26.80;1.00;;;;;;4880307;29;20060;-75
2023/04/19 11:04:12;;;;;;;1999.90;999.90;;;26.80;1.00;;;;;;4896622;29;20051;-75
2023/04/19 11:07:00;;;;;;;1999.90;999.90;;;26.70;1.00;;;;;;4894441;29;20049;-75
2023/04/19 11:09:34;;;;;;;1999.90;999.90;;;26.70;1.00;;;;;;4888648;29;20048;-75
2023/04/19 11:12:07;;;;;;;1999.90;999.90;;;26.50;1.00;;;;;;4913588;29;20061;-75
2023/04/19 11:14:44;;;;;;;1999.90;999.90;;;26.20;1.00;;;;;;4895742;29;20060;-80
2023/04/19 11:17:27;;;;;;;1999.90;999.90;;;26.40;1.00;;;;;;4892075;29;20044;-76
2023/04/19 11:20:07;;;;;;;1999.90;999.90;;;26.60;1.00;;;;;;4891031;29;20120;-76
2023/04/19 11:22:34;;;;;;;1999.90;999.90;;;27.00;1.00;;;;;;4884042;29;20049;-76
2023/04/19 11:25:07;;;;;;;1999.90;999.90;;;27.20;1.00;;;;;;4894113;29;20121;-76
2023/04/19 11:27:33;;;;;;;1999.90;999.90;;;27.10;1.00;;;;;;4896047;29;20520;-75
2023/04/19 11:30:03;;;;;;;1999.90;999.90;;;26.90;1.00;;;;;;4884569;29;20080;-75
2023/04/19 11:32:29;;;;;;;1999.90;999.90;;;26.90;1.00;;;;;;4894981;29;20498;-76
2023/04/19 11:34:56;;;;;;;1999.90;999.90;;;27.10;1.00;;;;;;4892024;29;20094;-78
2023/04/19 11:37:22;;;;;;;1999.90;999.90;;;27.00;1.00;;;;;;4883571;29;20045;-76
2023/04/19 11:39:47;;;;;;;1999.90;999.90;;;26.90;1.00;;;;;;4884224;29;20054;-75
2023/04/19 11:42:19;;;;;;;1999.90;999.90;;;26.80;1.00;;;;;;4885942;29;20048;-77
2023/04/19 11:44:50;;;;;;;1999.90;999.90;;;26.70;1.00;;;;;;4883993;29;20054;-77
2023/04/19 11:47:16;;;;;;;1999.90;999.90;;;26.90;1.00;;;;;;4890628;29;20370;-76
2023/04/19 11:49:42;;;;;;;1999.90;999.90;;;27.00;1.00;;;;;;4871172;29;20052;-76
2023/04/19 11:52:07;;;;;;;1999.90;999.90;;;27.00;1.00;;;;;;4886766;29;20048;-77
2023/04/19 11:54:33;;;;;;;1999.90;999.90;;;27.10;1.00;;;;;;4872337;29;20127;-78
2023/04/19 11:57:02;;;;;;;1999.90;999.90;;;26.90;1.00;;;;;;4885970;29;20051;-74
2023/04/19 11:59:28;;;;;;;1999.90;999.90;;;26.70;1.00;;;;;;4882769;29;20073;-75
2023/04/19 12:01:54;;;;;;;1999.90;999.90;;;26.80;1.00;;;;;;4880638;29;20032;-74
2023/04/19 12:04:21;;;;;;;1999.90;999.90;;;26.70;1.00;;;;;;4885819;29;20762;-75
2023/04/19 12:06:57;;;;;;;1999.90;999.90;;;26.50;1.00;;;;;;4894905;29;20450;-74
2023/04/19 12:09:23;;;;;;;1999.90;999.90;;;26.40;1.00;;;;;;4884525;29;20048;-74
2023/04/19 12:11:49;;;;;;;1999.90;999.90;;;25.80;1.00;;;;;;4882035;29;20112;-74